createdAt,value
2022-10-28T03:16:56.840Z,25.80
2022-10-28T03:17:28.130Z,25.79
2022-10-28T03:17:59.362Z,25.80
2022-10-28T03:18:30.855Z,25.73
2022-10-28T03:19:02.129Z,25.74
2022-10-28T03:19:33.596Z,25.76
2022-10-28T03:20:04.862Z,25.78
2022-10-28T03:20:36.129Z,25.80
2022-10-28T03:21:07.418Z,25.83
2022-10-28T03:21:38.692Z,25.76
2022-10-28T03:22:09.987Z,25.78
2022-10-28T03:22:41.238Z,25.78
2022-10-28T03:23:12.489Z,25.78
2022-10-28T03:23:43.786Z,25.83
2022-10-28T03:24:15.141Z,25.83
2022-10-28T03:24:46.393Z,25.84
2022-10-28T03:25:17.648Z,25.83
2022-10-28T03:25:48.933Z,25.83
2022-10-28T03:26:20.203Z,25.83
2022-10-28T03:26:51.475Z,25.80
2022-10-28T03:27:22.766Z,25.81
2022-10-28T03:27:54.015Z,25.83
2022-10-28T03:28:25.358Z,25.84
2022-10-28T03:28:56.585Z,25.83
2022-10-28T03:29:27.846Z,25.84
2022-10-28T03:29:59.106Z,25.84
2022-10-28T03:30:30.400Z,25.89
2022-10-28T03:31:01.634Z,25.81
2022-10-28T03:31:32.919Z,25.87
2022-10-28T03:32:04.215Z,25.85
2022-10-28T03:32:35.671Z,25.82
2022-10-28T03:33:06.883Z,25.84
2022-10-28T03:33:38.148Z,25.83
2022-10-28T03:34:09.424Z,25.83
2022-10-28T03:34:40.744Z,25.83
2022-10-28T03:35:12.011Z,25.84
2022-10-28T03:35:43.406Z,25.85
2022-10-28T03:36:14.658Z,25.84
2022-10-28T03:36:45.985Z,25.85
2022-10-28T03:37:17.286Z,25.89
2022-10-28T03:37:48.578Z,25.87
2022-10-28T03:38:19.924Z,25.88
2022-10-28T03:38:51.196Z,25.90
2022-10-28T03:39:22.480Z,25.86
2022-10-28T03:39:53.745Z,25.87
2022-10-28T03:40:25.067Z,25.84
2022-10-28T03:40:56.334Z,25.89
2022-10-28T03:41:27.960Z,25.90
2022-10-28T03:41:59.227Z,25.93
2022-10-28T03:42:30.579Z,25.87
2022-10-28T03:43:01.826Z,25.91
2022-10-28T03:43:33.069Z,25.86
2022-10-28T03:44:04.330Z,25.82
2022-10-28T03:44:35.587Z,25.87
2022-10-28T03:45:06.797Z,25.89
2022-10-28T03:45:38.063Z,25.85
2022-10-28T03:46:09.349Z,25.84
2022-10-28T03:46:40.581Z,25.84
2022-10-28T03:47:11.840Z,25.87
2022-10-28T03:47:43.180Z,25.88
2022-10-28T03:48:14.568Z,25.90
2022-10-28T03:48:45.810Z,25.91
2022-10-28T03:49:17.064Z,25.94
2022-10-28T03:49:48.320Z,25.93
2022-10-28T03:50:19.616Z,25.91
2022-10-28T03:50:50.876Z,25.89
2022-10-28T03:51:22.145Z,25.91
2022-10-28T03:51:53.367Z,25.90
2022-10-28T03:52:24.655Z,25.91
2022-10-28T03:52:55.887Z,25.93
2022-10-28T03:53:29.046Z,25.93
2022-10-28T03:54:02.465Z,25.86
2022-10-28T03:54:33.773Z,25.90
2022-10-28T03:55:04.978Z,25.89
2022-10-28T03:55:36.216Z,25.92
2022-10-28T03:56:07.480Z,25.93
2022-10-28T03:56:38.705Z,25.96
2022-10-28T03:57:09.982Z,25.96
2022-10-28T03:57:41.368Z,25.93
2022-10-28T03:58:12.720Z,25.93
2022-10-28T03:58:44.014Z,25.90
2022-10-28T03:59:19.165Z,25.90
2022-10-28T03:59:54.264Z,25.92
2022-10-28T04:00:25.919Z,25.90
2022-10-28T04:00:57.499Z,25.88
2022-10-28T04:01:29.317Z,25.88
2022-10-28T04:02:01.048Z,25.83
2022-10-28T04:02:32.811Z,25.82
2022-10-28T04:03:04.599Z,25.79
2022-10-28T04:03:39.256Z,25.81
2022-10-28T04:04:10.747Z,25.80
2022-10-28T04:04:42.066Z,25.82
2022-10-28T04:05:13.418Z,25.83
2022-10-28T04:05:44.739Z,25.82
2022-10-28T04:06:15.988Z,25.82
2022-10-28T04:06:47.274Z,25.84
2022-10-28T04:07:18.597Z,25.85
2022-10-28T04:07:49.831Z,25.86
2022-10-28T04:08:21.090Z,25.89
2022-10-28T04:08:52.379Z,25.93
2022-10-28T04:09:23.649Z,25.91
2022-10-28T04:09:54.894Z,25.90
2022-10-28T04:10:26.319Z,25.87
2022-10-28T04:10:57.765Z,25.82
2022-10-28T04:11:29.066Z,25.85
2022-10-28T04:12:00.407Z,25.83
2022-10-28T04:12:31.731Z,25.81
2022-10-28T04:13:03.084Z,25.83
2022-10-28T04:13:34.412Z,25.82
2022-10-28T04:14:05.784Z,25.82
2022-10-28T04:14:37.100Z,25.83
2022-10-28T04:15:08.397Z,25.84
2022-10-28T04:15:39.633Z,25.83
2022-10-28T04:16:10.947Z,25.82
2022-10-28T04:16:42.216Z,25.79
2022-10-28T04:17:13.534Z,25.81
2022-10-28T04:17:44.778Z,25.81
2022-10-28T04:18:16.057Z,25.81
2022-10-28T04:18:47.326Z,25.80
2022-10-28T04:19:18.609Z,25.78
2022-10-28T04:19:49.907Z,25.74
2022-10-28T04:20:21.176Z,25.75
2022-10-28T04:20:52.467Z,25.76
2022-10-28T04:21:23.703Z,25.78
2022-10-28T04:21:54.932Z,25.79
2022-10-28T04:22:26.173Z,25.76
2022-10-28T04:22:57.515Z,25.81
2022-10-28T04:23:28.828Z,25.75
2022-10-28T04:24:00.067Z,25.82
2022-10-28T04:24:31.362Z,25.83
2022-10-28T04:25:02.628Z,25.83
2022-10-28T04:25:33.939Z,25.85
2022-10-28T04:26:05.199Z,25.89
2022-10-28T04:26:36.447Z,25.84
2022-10-28T04:27:07.712Z,25.84
2022-10-28T04:27:38.984Z,25.77
2022-10-28T04:28:10.240Z,25.80
2022-10-28T04:28:41.526Z,25.84
2022-10-28T04:29:12.798Z,25.85
2022-10-28T04:29:44.048Z,25.84
2022-10-28T04:30:15.352Z,25.83
2022-10-28T04:30:46.671Z,25.85
2022-10-28T04:31:17.960Z,25.86
2022-10-28T04:31:52.146Z,25.89
2022-10-28T04:32:23.671Z,25.85
2022-10-28T04:32:54.927Z,25.89
2022-10-28T04:33:26.189Z,25.87
2022-10-28T04:33:57.420Z,25.86
2022-10-28T04:34:28.685Z,25.85
2022-10-28T04:34:59.940Z,25.87
2022-10-28T04:35:31.268Z,25.88
2022-10-28T04:36:02.526Z,25.87
2022-10-28T04:36:33.781Z,25.83
2022-10-28T04:37:05.060Z,25.87
2022-10-28T04:37:36.307Z,25.84
2022-10-28T04:38:07.604Z,25.90
2022-10-28T04:38:38.918Z,25.87
2022-10-28T04:39:10.290Z,25.91
2022-10-28T04:39:41.580Z,25.94
2022-10-28T04:40:12.829Z,25.92
2022-10-28T04:40:44.110Z,25.88
2022-10-28T04:41:15.397Z,25.91
2022-10-28T04:41:46.654Z,25.86
2022-10-28T04:42:17.902Z,25.88
2022-10-28T04:42:49.166Z,25.84
2022-10-28T04:43:20.495Z,25.89
2022-10-28T04:43:51.786Z,25.84
2022-10-28T04:44:23.058Z,25.84
2022-10-28T04:44:54.342Z,25.89
2022-10-28T04:45:25.617Z,25.81
2022-10-28T04:45:56.909Z,25.85
2022-10-28T04:46:28.129Z,25.90
2022-10-28T04:46:59.387Z,25.88
2022-10-28T04:47:30.688Z,25.89
2022-10-28T04:48:01.928Z,25.85
2022-10-28T04:48:33.148Z,25.86
2022-10-28T04:49:04.407Z,25.81
2022-10-28T04:49:38.148Z,25.82
2022-10-28T04:50:10.403Z,25.80
2022-10-28T04:50:41.660Z,25.79
2022-10-28T04:51:12.982Z,25.83
2022-10-28T04:51:44.291Z,25.82
2022-10-28T04:52:15.971Z,25.75
2022-10-28T04:52:47.393Z,25.73
2022-10-28T04:53:18.721Z,25.78
2022-10-28T04:53:50.174Z,25.75
2022-10-28T04:54:21.494Z,25.76
2022-10-28T04:54:52.738Z,25.75
2022-10-28T04:55:24.024Z,25.76
2022-10-28T04:55:55.281Z,25.80
2022-10-28T04:56:26.564Z,25.76
2022-10-28T04:56:57.833Z,25.74
2022-10-28T04:57:29.069Z,25.73
2022-10-28T04:58:00.408Z,25.74
2022-10-28T04:58:31.680Z,25.75
2022-10-28T04:59:02.941Z,25.75
2022-10-28T04:59:34.242Z,25.76
2022-10-28T05:00:05.596Z,25.73
2022-10-28T05:00:36.927Z,25.79
2022-10-28T05:01:08.330Z,25.74
2022-10-28T05:01:39.845Z,25.78
2022-10-28T05:02:11.373Z,25.80
2022-10-28T05:02:46.040Z,25.80
2022-10-28T05:03:17.641Z,25.84
2022-10-28T05:03:48.933Z,25.84
2022-10-28T05:04:20.331Z,25.84
2022-10-28T05:04:51.614Z,25.83
2022-10-28T05:05:22.936Z,25.78
2022-10-28T05:05:54.249Z,25.81
2022-10-28T05:06:25.548Z,25.80
2022-10-28T05:06:56.866Z,25.82
2022-10-28T05:07:28.140Z,25.84
2022-10-28T05:07:59.425Z,25.79
2022-10-28T05:08:30.763Z,25.86
2022-10-28T05:09:02.075Z,25.85
2022-10-28T05:09:33.369Z,25.83
2022-10-28T05:10:04.617Z,25.81
2022-10-28T05:10:36.018Z,25.86
2022-10-28T05:11:07.286Z,25.84
2022-10-28T05:11:38.492Z,25.85
2022-10-28T05:12:09.767Z,25.78
2022-10-28T05:12:41.062Z,25.71
2022-10-28T05:13:12.452Z,25.77
2022-10-28T05:13:43.746Z,25.83
2022-10-28T05:14:14.997Z,25.83
2022-10-28T05:14:48.895Z,25.83
2022-10-28T05:15:21.400Z,25.84
2022-10-28T05:15:52.792Z,25.82
2022-10-28T05:16:24.143Z,25.84
2022-10-28T05:16:55.427Z,25.82
2022-10-28T05:17:26.667Z,25.85
2022-10-28T05:17:57.920Z,25.84
2022-10-28T05:18:29.221Z,25.82
2022-10-28T05:19:00.519Z,25.82
2022-10-28T05:19:31.750Z,25.84
2022-10-28T05:20:03.023Z,25.88
2022-10-28T05:20:34.309Z,25.87
2022-10-28T05:21:05.585Z,25.85
2022-10-28T05:21:36.857Z,25.82
2022-10-28T05:22:08.167Z,25.85
2022-10-28T05:22:39.540Z,25.82
2022-10-28T05:23:10.918Z,25.81
2022-10-28T05:23:42.194Z,25.78
2022-10-28T05:24:13.485Z,25.80
2022-10-28T05:24:44.746Z,25.81
2022-10-28T05:25:16.031Z,25.77
2022-10-28T05:25:47.349Z,25.79
2022-10-28T05:26:18.656Z,25.74
2022-10-28T05:26:50.048Z,25.76
2022-10-28T05:27:21.397Z,25.78
2022-10-28T05:27:52.665Z,25.81
2022-10-28T05:28:23.977Z,25.74
2022-10-28T05:28:55.258Z,25.78
2022-10-28T05:29:29.768Z,25.76
2022-10-28T05:30:04.328Z,25.77
2022-10-28T05:30:35.577Z,25.79
2022-10-28T05:31:06.892Z,25.78
2022-10-28T05:31:38.212Z,25.78
2022-10-28T05:32:09.567Z,25.78
2022-10-28T05:32:40.884Z,25.79
2022-10-28T05:33:12.180Z,25.79
2022-10-28T05:33:43.499Z,25.76
2022-10-28T05:34:14.767Z,25.77
2022-10-28T05:34:46.032Z,25.79
2022-10-28T05:35:17.303Z,25.80
2022-10-28T05:35:48.579Z,25.84
2022-10-28T05:36:19.850Z,25.82
2022-10-28T05:36:51.137Z,25.82
2022-10-28T05:37:22.507Z,25.83
2022-10-28T05:37:53.729Z,25.84
2022-10-28T05:38:24.983Z,25.79
2022-10-28T05:38:56.286Z,25.79
2022-10-28T05:39:28.004Z,25.81
2022-10-28T05:39:59.287Z,25.82
2022-10-28T05:40:30.615Z,25.82
2022-10-28T05:41:01.889Z,25.80
2022-10-28T05:41:36.463Z,25.80
2022-10-28T05:42:09.980Z,25.82
2022-10-28T05:42:41.302Z,25.86
2022-10-28T05:43:12.564Z,25.84
2022-10-28T05:43:43.851Z,25.78
2022-10-28T05:44:15.114Z,25.81
2022-10-28T05:44:46.383Z,25.78
2022-10-28T05:45:18.107Z,25.81
2022-10-28T05:45:49.456Z,25.85
2022-10-28T05:46:20.728Z,25.82
2022-10-28T05:46:52.015Z,25.84
2022-10-28T05:47:23.238Z,25.83
2022-10-28T05:47:54.814Z,25.78
2022-10-28T05:48:26.287Z,25.83
2022-10-28T05:48:57.514Z,25.85
2022-10-28T05:49:28.764Z,25.87
2022-10-28T05:50:00.006Z,25.86
2022-10-28T05:50:31.296Z,25.84
2022-10-28T05:51:02.614Z,25.84
2022-10-28T05:51:33.887Z,25.78
2022-10-28T05:52:05.172Z,25.80
2022-10-28T05:52:36.481Z,25.78
2022-10-28T05:53:07.785Z,25.78
2022-10-28T05:53:39.032Z,25.84
2022-10-28T05:54:10.254Z,25.85
2022-10-28T05:54:41.474Z,25.81
2022-10-28T05:55:12.726Z,25.82
2022-10-28T05:55:46.878Z,25.81
2022-10-28T05:56:19.289Z,25.83
2022-10-28T05:56:50.575Z,25.88
2022-10-28T05:57:21.803Z,25.85
2022-10-28T05:57:53.302Z,25.85
2022-10-28T05:58:24.883Z,25.80
2022-10-28T05:58:56.201Z,25.82
2022-10-28T05:59:27.471Z,25.83
2022-10-28T05:59:58.762Z,25.83
2022-10-28T06:00:30.064Z,25.87
2022-10-28T06:01:01.293Z,25.84
2022-10-28T06:01:32.623Z,25.87
2022-10-28T06:02:04.035Z,25.86
2022-10-28T06:02:35.294Z,25.85
2022-10-28T06:03:06.506Z,25.87
2022-10-28T06:03:37.844Z,25.86
2022-10-28T06:04:09.171Z,25.82
2022-10-28T06:04:40.475Z,25.81
2022-10-28T06:05:11.720Z,25.85
2022-10-28T06:05:43.069Z,25.86
2022-10-28T06:06:14.341Z,25.85
2022-10-28T06:06:45.556Z,25.82
2022-10-28T06:07:16.814Z,25.81
2022-10-28T06:07:48.117Z,25.85
2022-10-28T06:08:19.350Z,25.81
2022-10-28T06:08:50.583Z,25.81
2022-10-28T06:09:21.791Z,25.80
2022-10-28T06:09:53.040Z,25.75
2022-10-28T06:10:24.378Z,25.76
2022-10-28T06:10:54.121Z,25.77
2022-10-28T06:11:25.354Z,25.71
2022-10-28T06:11:56.661Z,25.81
2022-10-28T06:12:27.978Z,25.82
2022-10-28T06:12:59.266Z,25.83
2022-10-28T06:13:30.513Z,25.80
2022-10-28T06:14:01.826Z,25.83
2022-10-28T06:14:33.152Z,25.78
2022-10-28T06:15:04.387Z,25.79
2022-10-28T06:15:35.734Z,25.82
2022-10-28T06:16:07.045Z,25.78
2022-10-28T06:16:38.303Z,25.84
2022-10-28T06:17:09.567Z,25.83
2022-10-28T06:17:40.847Z,25.85
2022-10-28T06:18:15.439Z,25.82
2022-10-28T06:18:49.441Z,25.77
2022-10-28T06:19:20.674Z,25.70
2022-10-28T06:19:51.925Z,25.69
2022-10-28T06:20:23.158Z,25.73
2022-10-28T06:20:54.523Z,25.72
2022-10-28T06:21:25.816Z,25.76
2022-10-28T06:21:57.001Z,25.81
2022-10-28T06:22:28.291Z,25.82
2022-10-28T06:22:59.588Z,25.79
2022-10-28T06:23:30.879Z,25.74
2022-10-28T06:24:02.159Z,25.79
2022-10-28T06:24:33.466Z,25.79
2022-10-28T06:25:04.738Z,25.86
2022-10-28T06:25:36.001Z,25.81
2022-10-28T06:26:07.320Z,25.79
2022-10-28T06:26:38.599Z,25.77
2022-10-28T06:27:09.853Z,25.82
2022-10-28T06:27:41.082Z,25.79
2022-10-28T06:28:12.355Z,25.75
2022-10-28T06:28:43.619Z,25.76
2022-10-28T06:29:14.927Z,25.78
2022-10-28T06:29:46.217Z,25.77
2022-10-28T06:30:17.505Z,25.79
2022-10-28T06:30:48.782Z,25.76
2022-10-28T06:31:20.197Z,25.72
2022-10-28T06:31:51.491Z,25.71
2022-10-28T06:32:22.744Z,25.69
2022-10-28T06:32:54.117Z,25.71
2022-10-28T06:33:25.408Z,25.70
2022-10-28T06:33:56.632Z,25.69
2022-10-28T06:34:27.896Z,25.71
2022-10-28T06:34:59.160Z,25.70
2022-10-28T06:35:30.442Z,25.69
2022-10-28T06:36:01.826Z,25.74
2022-10-28T06:36:33.180Z,25.75
2022-10-28T06:37:04.470Z,25.71
2022-10-28T06:37:35.757Z,25.77
2022-10-28T06:38:09.364Z,25.75
2022-10-28T06:38:40.844Z,25.75
2022-10-28T06:39:12.095Z,25.77
2022-10-28T06:39:43.349Z,25.72
2022-10-28T06:40:14.618Z,25.70
2022-10-28T06:40:47.930Z,25.67
2022-10-28T06:41:21.585Z,25.71
2022-10-28T06:41:52.897Z,25.72
2022-10-28T06:42:24.156Z,25.70
2022-10-28T06:42:55.440Z,25.74
2022-10-28T06:43:26.763Z,25.68
2022-10-28T06:43:58.023Z,25.69
2022-10-28T06:44:29.254Z,25.72
2022-10-28T06:45:00.547Z,25.77
2022-10-28T06:45:31.854Z,25.77
2022-10-28T06:46:03.100Z,25.78
2022-10-28T06:46:35.854Z,25.74
2022-10-28T06:47:07.094Z,25.74
2022-10-28T06:47:41.386Z,25.77
2022-10-28T06:48:13.045Z,25.74
2022-10-28T06:48:44.320Z,25.72
2022-10-28T06:49:15.558Z,25.76
2022-10-28T06:49:46.823Z,25.74
2022-10-28T06:50:18.064Z,25.77
2022-10-28T06:50:49.384Z,25.71
2022-10-28T06:51:20.664Z,25.69
2022-10-28T06:51:51.904Z,25.74
2022-10-28T06:52:23.202Z,25.75
2022-10-28T06:52:54.464Z,25.78
2022-10-28T06:53:25.782Z,25.78
2022-10-28T06:53:57.082Z,25.80
2022-10-28T06:54:28.283Z,25.81
2022-10-28T06:54:59.495Z,25.80
2022-10-28T06:55:30.826Z,25.81
2022-10-28T06:56:02.113Z,25.78
2022-10-28T06:56:33.357Z,25.81
2022-10-28T06:57:04.645Z,25.83
2022-10-28T06:57:35.962Z,25.82
2022-10-28T06:58:07.179Z,25.86
2022-10-28T06:58:38.493Z,25.81
2022-10-28T06:59:09.744Z,25.82
2022-10-28T06:59:41.019Z,25.84
2022-10-28T07:00:12.290Z,25.84
2022-10-28T07:00:43.598Z,25.84
2022-10-28T07:01:14.906Z,25.83
2022-10-28T07:01:46.302Z,25.86
2022-10-28T07:02:17.714Z,25.84
2022-10-28T07:02:49.135Z,25.82
2022-10-28T07:03:20.422Z,25.86
2022-10-28T07:03:51.687Z,25.80
2022-10-28T07:04:22.943Z,25.86
2022-10-28T07:04:54.317Z,25.86
2022-10-28T07:05:25.620Z,25.88
2022-10-28T07:05:56.869Z,25.85
2022-10-28T07:06:28.107Z,25.88
2022-10-28T07:06:59.352Z,25.87
2022-10-28T07:07:30.597Z,25.90
2022-10-28T07:08:01.907Z,25.82
2022-10-28T07:08:33.190Z,25.83
2022-10-28T07:09:04.474Z,25.87
2022-10-28T07:09:35.680Z,25.82
2022-10-28T07:10:06.897Z,25.80
2022-10-28T07:10:38.131Z,25.85
2022-10-28T07:11:09.385Z,25.86
2022-10-28T07:11:40.776Z,25.87
2022-10-28T07:12:12.089Z,25.88
2022-10-28T07:12:44.538Z,25.87
2022-10-28T07:13:15.837Z,25.89
2022-10-28T07:13:48.950Z,25.84
2022-10-28T07:14:20.437Z,25.86
2022-10-28T07:14:51.752Z,25.83
2022-10-28T07:15:23.056Z,25.84
2022-10-28T07:15:54.374Z,25.85
2022-10-28T07:16:25.635Z,25.79
2022-10-28T07:16:56.934Z,25.84
2022-10-28T07:17:28.256Z,25.83
2022-10-28T07:17:59.501Z,25.81
2022-10-28T07:18:30.738Z,25.82
2022-10-28T07:19:02.024Z,25.81
2022-10-28T07:19:33.312Z,25.84
2022-10-28T07:20:04.627Z,25.85
2022-10-28T07:20:35.926Z,25.82
2022-10-28T07:21:07.280Z,25.77
2022-10-28T07:21:38.636Z,25.80
2022-10-28T07:22:10.051Z,25.84
2022-10-28T07:22:41.420Z,25.79
2022-10-28T07:23:12.712Z,25.84
2022-10-28T07:23:43.979Z,25.83
2022-10-28T07:24:15.366Z,25.77
2022-10-28T07:24:46.614Z,25.76
2022-10-28T07:25:17.836Z,25.77
2022-10-28T07:25:49.143Z,25.80
2022-10-28T07:26:20.540Z,25.78
2022-10-28T07:26:54.206Z,25.76
2022-10-28T07:27:28.223Z,25.82
2022-10-28T07:27:59.538Z,25.79
2022-10-28T07:28:30.805Z,25.79
2022-10-28T07:29:02.060Z,25.82
2022-10-28T07:29:33.292Z,25.78
2022-10-28T07:30:04.591Z,25.78
2022-10-28T07:30:35.871Z,25.80
2022-10-28T07:31:07.179Z,25.77
2022-10-28T07:31:38.484Z,25.78
2022-10-28T07:32:09.785Z,25.80
2022-10-28T07:32:41.152Z,25.76
2022-10-28T07:33:12.443Z,25.80
2022-10-28T07:33:43.780Z,25.82
2022-10-28T07:34:15.032Z,25.81
2022-10-28T07:34:46.250Z,25.80
2022-10-28T07:35:17.492Z,25.83
2022-10-28T07:35:48.747Z,25.83
2022-10-28T07:36:20.043Z,25.81
2022-10-28T07:36:51.295Z,25.85
2022-10-28T07:37:22.595Z,25.86
2022-10-28T07:37:53.886Z,25.84
2022-10-28T07:38:25.177Z,25.83
2022-10-28T07:38:56.443Z,25.83
2022-10-28T07:39:27.746Z,25.82
2022-10-28T07:39:59.063Z,25.84
2022-10-28T07:40:30.295Z,25.82
2022-10-28T07:41:01.569Z,25.85
2022-10-28T07:41:32.930Z,25.79
2022-10-28T07:42:04.201Z,25.82
2022-10-28T07:42:35.430Z,25.83
2022-10-28T07:43:06.755Z,25.81
2022-10-28T07:43:38.035Z,25.84
2022-10-28T07:44:09.369Z,25.84
2022-10-28T07:44:40.610Z,25.80
2022-10-28T07:45:11.849Z,25.82
2022-10-28T07:45:43.149Z,25.82
2022-10-28T07:46:14.473Z,25.80
2022-10-28T07:46:45.813Z,25.82
2022-10-28T07:47:17.107Z,25.77
2022-10-28T07:47:48.382Z,25.74
2022-10-28T07:48:19.688Z,25.78
2022-10-28T07:48:50.954Z,25.79
2022-10-28T07:49:22.210Z,25.79
2022-10-28T07:49:53.476Z,25.73
2022-10-28T07:50:24.796Z,25.79
2022-10-28T07:50:56.060Z,25.73
2022-10-28T07:51:27.352Z,25.79
2022-10-28T07:51:58.610Z,25.74
2022-10-28T07:52:29.965Z,25.74
2022-10-28T07:53:01.271Z,25.76
2022-10-28T07:53:32.692Z,25.77
2022-10-28T07:54:03.981Z,25.77
2022-10-28T07:54:35.209Z,25.79
2022-10-28T07:55:06.474Z,25.84
2022-10-28T07:55:37.720Z,25.80
2022-10-28T07:56:08.991Z,25.83
2022-10-28T07:56:40.314Z,25.78
2022-10-28T07:57:11.697Z,25.74
2022-10-28T07:57:42.944Z,25.81
2022-10-28T07:58:14.200Z,25.76
2022-10-28T07:58:45.488Z,25.74
2022-10-28T07:59:16.753Z,25.69
2022-10-28T07:59:48.043Z,25.66
2022-10-28T08:00:19.337Z,25.66
2022-10-28T08:00:50.648Z,25.64
2022-10-28T08:01:22.035Z,25.66
2022-10-28T08:01:53.510Z,25.69
2022-10-28T08:02:24.768Z,25.71
2022-10-28T08:02:56.025Z,25.70
2022-10-28T08:03:34.507Z,25.69
2022-10-28T08:04:09.591Z,25.64
2022-10-28T08:04:40.853Z,25.65
2022-10-28T08:05:12.172Z,25.64
2022-10-28T08:05:43.477Z,25.66
2022-10-28T08:06:14.715Z,25.71
2022-10-28T08:06:46.055Z,25.72
2022-10-28T08:07:17.667Z,25.74
2022-10-28T08:07:48.915Z,25.73
2022-10-28T08:08:20.193Z,25.72
2022-10-28T08:08:51.475Z,25.63
2022-10-28T08:09:22.745Z,25.66
2022-10-28T08:09:54.009Z,25.69
2022-10-28T08:10:25.297Z,25.71
2022-10-28T08:10:56.552Z,25.75
2022-10-28T08:11:27.874Z,25.76
2022-10-28T08:11:59.153Z,25.80
2022-10-28T08:12:30.397Z,25.82
2022-10-28T08:13:01.689Z,25.83
2022-10-28T08:13:34.924Z,25.76
2022-10-28T08:14:08.089Z,25.79
2022-10-28T08:14:39.310Z,25.81
2022-10-28T08:15:10.597Z,25.79
2022-10-28T08:15:41.951Z,25.82
2022-10-28T08:16:13.217Z,25.83
2022-10-28T08:16:44.504Z,25.85
2022-10-28T08:17:15.780Z,25.84
2022-10-28T08:17:47.025Z,25.84
2022-10-28T08:18:18.303Z,25.84
2022-10-28T08:18:49.542Z,25.84
2022-10-28T08:19:20.836Z,25.84
2022-10-28T08:19:52.132Z,25.84
2022-10-28T08:20:23.545Z,25.82
2022-10-28T08:20:54.806Z,25.81
2022-10-28T08:21:26.106Z,25.79
2022-10-28T08:21:57.397Z,25.82
2022-10-28T08:22:28.667Z,25.76
2022-10-28T08:23:02.762Z,25.78
2022-10-28T08:23:36.549Z,25.80
2022-10-28T08:24:07.811Z,25.82
2022-10-28T08:24:39.104Z,25.83
2022-10-28T08:25:10.369Z,25.82
2022-10-28T08:25:41.700Z,25.83
2022-10-28T08:26:12.983Z,25.87
2022-10-28T08:26:44.254Z,25.82
2022-10-28T08:27:15.574Z,25.82
2022-10-28T08:27:46.900Z,25.82
2022-10-28T08:28:18.189Z,25.78
2022-10-28T08:28:49.426Z,25.77
2022-10-28T08:29:20.763Z,25.74
2022-10-28T08:29:52.037Z,25.78
2022-10-28T08:30:23.327Z,25.81
2022-10-28T08:31:08.390Z,25.82
2022-10-28T08:31:40.282Z,25.82
2022-10-28T08:32:11.566Z,25.80
2022-10-28T08:32:42.885Z,25.80
2022-10-28T08:33:14.157Z,25.78
2022-10-28T08:33:45.461Z,25.71
2022-10-28T08:34:16.830Z,25.74
2022-10-28T08:34:48.168Z,25.74
2022-10-28T08:35:19.455Z,25.82
2022-10-28T08:35:50.728Z,25.81
2022-10-28T08:36:22.000Z,25.78
2022-10-28T08:36:53.424Z,25.78
2022-10-28T08:37:24.745Z,25.77
2022-10-28T08:37:56.470Z,25.81
2022-10-28T08:38:27.865Z,25.80
2022-10-28T08:38:59.143Z,25.77
2022-10-28T08:39:30.401Z,25.76
2022-10-28T08:40:01.660Z,25.78
2022-10-28T08:40:32.944Z,25.79
2022-10-28T08:41:04.168Z,25.76
2022-10-28T08:41:35.445Z,25.78
2022-10-28T08:42:06.749Z,25.82
2022-10-28T08:42:38.003Z,25.87
2022-10-28T08:43:09.247Z,25.84
2022-10-28T08:43:56.709Z,25.82
2022-10-28T08:44:29.124Z,25.78
2022-10-28T08:45:00.346Z,25.79
2022-10-28T08:45:31.667Z,25.80
2022-10-28T08:46:02.966Z,25.80
2022-10-28T08:46:34.194Z,25.75
2022-10-28T08:47:05.481Z,25.80
2022-10-28T08:47:36.779Z,25.80
2022-10-28T08:48:08.073Z,25.74
2022-10-28T08:48:39.400Z,25.77
2022-10-28T08:49:10.646Z,25.73
2022-10-28T08:49:43.461Z,25.69
2022-10-28T08:50:17.077Z,25.73
2022-10-28T08:50:48.377Z,25.73
2022-10-28T08:51:19.622Z,25.81
2022-10-28T08:51:50.893Z,25.82
2022-10-28T08:52:22.184Z,25.81
2022-10-28T08:52:53.710Z,25.82
2022-10-28T08:53:25.148Z,25.79
2022-10-28T08:53:56.483Z,25.79
2022-10-28T08:54:27.754Z,25.74
2022-10-28T08:54:59.052Z,25.79
2022-10-28T08:55:30.312Z,25.77
2022-10-28T08:56:01.574Z,25.77
2022-10-28T08:56:32.851Z,25.75
2022-10-28T08:57:04.083Z,25.74
2022-10-28T08:57:35.384Z,25.74
2022-10-28T08:58:06.655Z,25.75
2022-10-28T08:58:37.908Z,25.75
2022-10-28T08:59:09.125Z,25.76
2022-10-28T08:59:40.465Z,25.71
2022-10-28T09:00:11.722Z,25.79
2022-10-28T09:00:43.016Z,25.76
2022-10-28T09:01:14.368Z,25.76
2022-10-28T09:01:45.880Z,25.78
2022-10-28T09:02:17.297Z,25.77
2022-10-28T09:02:48.715Z,25.79
2022-10-28T09:03:19.947Z,25.79
2022-10-28T09:03:51.176Z,25.77
2022-10-28T09:04:22.415Z,25.73
2022-10-28T09:04:53.658Z,25.73
2022-10-28T09:05:24.952Z,25.72
2022-10-28T09:05:56.244Z,25.77
2022-10-28T09:06:27.594Z,25.80
2022-10-28T09:06:58.939Z,25.83
2022-10-28T09:07:30.223Z,25.81
2022-10-28T09:08:01.454Z,25.77
2022-10-28T09:08:32.714Z,25.80
2022-10-28T09:09:04.008Z,25.81
2022-10-28T09:09:35.315Z,25.83
2022-10-28T09:10:06.613Z,25.86
2022-10-28T09:10:37.909Z,25.84
2022-10-28T09:11:09.154Z,25.88
2022-10-28T09:11:40.470Z,25.88
2022-10-28T09:12:11.713Z,25.89
2022-10-28T09:12:42.956Z,25.83
2022-10-28T09:13:14.361Z,25.84
2022-10-28T09:13:45.614Z,25.85
2022-10-28T09:14:16.907Z,25.84
2022-10-28T09:14:48.206Z,25.77
2022-10-28T09:15:19.492Z,25.80
2022-10-28T09:15:50.789Z,25.80
2022-10-28T09:16:22.016Z,25.79
2022-10-28T09:16:53.356Z,25.76
2022-10-28T09:17:24.593Z,25.81
2022-10-28T09:17:56.157Z,25.79
2022-10-28T09:18:27.753Z,25.81
2022-10-28T09:18:58.939Z,25.84
2022-10-28T09:19:30.173Z,25.87
2022-10-28T09:20:01.634Z,25.85
2022-10-28T09:20:33.192Z,25.84
2022-10-28T09:21:04.849Z,25.82
2022-10-28T09:21:39.405Z,25.79
2022-10-28T09:22:11.019Z,25.79
2022-10-28T09:22:42.783Z,25.79
2022-10-28T09:23:14.669Z,25.80
2022-10-28T09:23:46.829Z,25.80
2022-10-28T09:24:18.580Z,25.83
2022-10-28T09:24:50.136Z,25.81
2022-10-28T09:25:24.115Z,25.84
2022-10-28T09:25:55.390Z,25.80
2022-10-28T09:26:26.725Z,25.83
2022-10-28T09:26:58.040Z,25.81
2022-10-28T09:27:29.339Z,25.81
2022-10-28T09:28:00.676Z,25.78
2022-10-28T09:28:32.019Z,25.81
2022-10-28T09:29:03.363Z,25.78
2022-10-28T09:29:34.716Z,25.82
2022-10-28T09:30:06.063Z,25.79
2022-10-28T09:30:37.334Z,25.81
2022-10-28T09:31:08.587Z,25.78
2022-10-28T09:31:39.822Z,25.79
2022-10-28T09:32:11.106Z,25.79
2022-10-28T09:32:42.388Z,25.79
2022-10-28T09:33:13.698Z,25.82
2022-10-28T09:33:44.935Z,25.84
2022-10-28T09:34:16.201Z,25.86
2022-10-28T09:34:47.417Z,25.83
2022-10-28T09:35:18.664Z,25.84
2022-10-28T09:35:49.935Z,25.79
2022-10-28T09:36:21.160Z,25.80
2022-10-28T09:36:52.452Z,25.80
2022-10-28T09:37:23.903Z,25.80
2022-10-28T09:37:55.159Z,25.77
2022-10-28T09:38:26.490Z,25.84
2022-10-28T09:38:57.732Z,25.80
2022-10-28T09:39:29.017Z,25.83
2022-10-28T09:40:00.314Z,25.83
2022-10-28T09:40:31.574Z,25.83
2022-10-28T09:41:02.848Z,25.82
2022-10-28T09:53:42.733Z,25.89
2022-10-28T09:54:30.269Z,25.84
2022-10-28T09:55:25.212Z,25.89
2022-10-28T10:14:32.579Z,25.98
2022-10-28T10:25:40.801Z,25.97
2022-10-28T10:26:25.405Z,25.86
2022-10-28T10:27:12.419Z,25.90
2022-10-28T10:36:00.007Z,25.96
2022-10-28T10:36:48.020Z,25.95
2022-10-28T10:44:46.234Z,25.95
2022-10-28T10:52:15.827Z,25.98
2022-10-28T10:55:25.510Z,25.97
2022-10-28T10:56:20.684Z,25.98
2022-10-28T11:00:33.206Z,25.99
2022-10-28T11:02:22.831Z,25.98
2022-10-28T11:05:38.519Z,26.01
2022-10-28T11:27:14.920Z,25.94
2022-10-28T11:28:46.518Z,26.01
2022-10-28T11:30:19.408Z,26.00
2022-10-28T11:33:32.482Z,25.94
2022-10-28T11:35:05.663Z,26.03
2022-10-28T11:40:36.917Z,25.98
2022-10-28T11:47:44.925Z,26.02
2022-10-28T11:51:41.240Z,26.02
2022-10-28T11:57:21.177Z,26.04
2022-10-28T12:01:14.867Z,26.03
2022-10-28T12:10:38.992Z,26.03
2022-10-28T12:11:10.160Z,26.03
2022-10-28T12:11:41.392Z,26.04
2022-10-28T12:12:12.614Z,26.08
2022-10-28T12:12:47.246Z,26.08
2022-10-28T12:13:21.868Z,26.07
2022-10-28T12:13:53.338Z,26.05
2022-10-28T12:14:24.821Z,26.04
2022-10-28T12:14:56.193Z,26.04
2022-10-28T12:15:27.595Z,26.04
2022-10-28T12:15:58.975Z,26.03
2022-10-28T12:16:30.344Z,26.06
2022-10-28T12:17:01.742Z,26.06
2022-10-28T12:17:33.274Z,26.08